M I D A S
Marine Information and Data Acquisition System
Tripno 1545 of the Zeeleeuw from 2008-08-27 04:20:40 to 2008-08-27 15:05:10
Back to CruiseResearch ActivitiesStationsMapUnderway DataData graphs

EquipmentUnitsComments
TimeDGPSUTC
LatitudeDGPSDM.mWGS84
LongitudeDGPSDM.mWGS84
SpeedMeteo Stationm/sRelative wind speed
DirectionMeteo StationdegRelative wind direction
TemperatureMeteo Stationdeg CelciusAir temperature
PressureMeteo StationPaAtmospheric pressure
HumidityMeteo Station%Relative humidity
Missing or incorrect values are displayed as -999
Metereological data collected by the RV Zeeleeuw from 2008-08-27 04:15:07 to 2008-08-27 15:06:04
Time Latitude Longitude Speed Direction Temperature Pressure Humidity
2008-08-27 04:16 51°13.622 2°56.046 -999 -999 -999 -999 -999
2008-08-27 04:17 51°13.622 2°56.046 -999 -999 -999 -999 -999
2008-08-27 04:18 51°13.622 2°56.047 -999 -999 -999 -999 -999
2008-08-27 04:19 51°13.622 2°56.047 -999 -999 -999 -999 -999
2008-08-27 04:20 51°13.623 2°56.048 -999 -999 -999 -999 -999
2008-08-27 04:21 51°13.623 2°56.046 -999 -999 -999 -999 -999
2008-08-27 04:22 51°13.63 2°56.022 -999 -999 -999 -999 -999
2008-08-27 04:23 51°13.61 2°56.068 -999 -999 -999 -999 -999
2008-08-27 04:24 51°13.577 2°56.137 -999 -999 -999 -999 -999
2008-08-27 04:25 51°13.551 2°56.204 -999 -999 -999 -999 -999
2008-08-27 04:26 51°13.523 2°56.231 -999 -999 -999 -999 -999
2008-08-27 04:27 51°13.52 2°56.228 -999 -999 -999 -999 -999
2008-08-27 04:28 51°13.529 2°56.236 -999 -999 -999 -999 -999
2008-08-27 04:29 51°13.527 2°56.184 -999 -999 -999 -999 -999
2008-08-27 04:30 51°13.578 2°56.072 -999 -999 -999 -999 -999
2008-08-27 04:31 51°13.647 2°55.925 -999 -999 -999 -999 -999
2008-08-27 04:32 51°13.724 2°55.77 -999 -999 -999 -999 -999
2008-08-27 04:33 51°13.822 2°55.645 -999 -999 -999 -999 -999
2008-08-27 04:34 51°13.938 2°55.564 -999 -999 -999 -999 -999
2008-08-27 04:35 51°14.054 2°55.481 -999 -999 -999 -999 -999
2008-08-27 04:36 51°14.167 2°55.393 -999 -999 -999 -999 -999
2008-08-27 04:37 51°14.264 2°55.261 -999 -999 -999 -999 -999
2008-08-27 04:38 51°14.354 2°55.079 -999 -999 -999 -999 -999
2008-08-27 04:39 51°14.443 2°54.845 -999 -999 -999 -999 -999
2008-08-27 04:40 51°14.531 2°54.558 -999 -999 -999 -999 -999
2008-08-27 04:41 51°14.607 2°54.254 -999 -999 -999 -999 -999
2008-08-27 04:42 51°14.68 2°53.952 -999 -999 -999 -999 -999
2008-08-27 04:43 51°14.733 2°53.639 -999 -999 -999 -999 -999
2008-08-27 04:44 51°14.76 2°53.316 -999 -999 -999 -999 -999
2008-08-27 04:45 51°14.784 2°52.995 -999 -999 -999 -999 -999
2008-08-27 04:46 51°14.799 2°52.673 -999 -999 -999 -999 -999
2008-08-27 04:47 51°14.817 2°52.351 -999 -999 -999 -999 -999
2008-08-27 04:48 51°14.84 2°52.03 -999 -999 -999 -999 -999
2008-08-27 04:49 51°14.876 2°51.71 -999 -999 -999 -999 -999
2008-08-27 04:50 51°14.913 2°51.388 -999 -999 -999 -999 -999
2008-08-27 04:51 51°14.954 2°51.066 -999 -999 -999 -999 -999
2008-08-27 04:52 51°15.008 2°50.748 -999 -999 -999 -999 -999
2008-08-27 04:53 51°15.06 2°50.428 -999 -999 -999 -999 -999
2008-08-27 04:54 51°15.113 2°50.108 -999 -999 -999 -999 -999
2008-08-27 04:55 51°15.169 2°49.791 -999 -999 -999 -999 -999
2008-08-27 04:56 51°15.229 2°49.476 -999 -999 -999 -999 -999
2008-08-27 04:57 51°15.291 2°49.163 -999 -999 -999 -999 -999
2008-08-27 04:58 51°15.367 2°48.861 -999 -999 -999 -999 -999
2008-08-27 04:59 51°15.443 2°48.562 -999 -999 -999 -999 -999
2008-08-27 05:00 51°15.52 2°48.267 -999 -999 -999 -999 -999
2008-08-27 05:01 51°15.596 2°47.969 -999 -999 -999 -999 -999
2008-08-27 05:02 51°15.671 2°47.669 -999 -999 -999 -999 -999
2008-08-27 05:03 51°15.747 2°47.367 -999 -999 -999 -999 -999
2008-08-27 05:04 51°15.834 2°47.073 -999 -999 -999 -999 -999
2008-08-27 05:05 51°15.915 2°46.779 -999 -999 -999 -999 -999
2008-08-27 05:06 51°15.995 2°46.485 -999 -999 -999 -999 -999
2008-08-27 05:07 51°16.08 2°46.197 -999 -999 -999 -999 -999
2008-08-27 05:08 51°16.165 2°45.912 -999 -999 -999 -999 -999
2008-08-27 05:09 51°16.245 2°45.627 -999 -999 -999 -999 -999
2008-08-27 05:10 51°16.324 2°45.34 -999 -999 -999 -999 -999
2008-08-27 05:11 51°16.402 2°45.053 -999 -999 -999 -999 -999
2008-08-27 05:12 51°16.488 2°44.773 -999 -999 -999 -999 -999
2008-08-27 05:13 51°16.585 2°44.501 -999 -999 -999 -999 -999
2008-08-27 05:14 51°16.693 2°44.238 -999 -999 -999 -999 -999
2008-08-27 05:15 51°16.795 2°43.968 -999 -999 -999 -999 -999
2008-08-27 05:16 51°16.9 2°43.701 -999 -999 -999 -999 -999
2008-08-27 05:17 51°17.006 2°43.432 -999 -999 -999 -999 -999
2008-08-27 05:18 51°17.111 2°43.161 -999 -999 -999 -999 -999
2008-08-27 05:19 51°17.223 2°42.899 -999 -999 -999 -999 -999
2008-08-27 05:20 51°17.338 2°42.639 -999 -999 -999 -999 -999
2008-08-27 05:21 51°17.454 2°42.376 -999 -999 -999 -999 -999
2008-08-27 05:22 51°17.567 2°42.109 -999 -999 -999 -999 -999
2008-08-27 05:23 51°17.678 2°41.843 -999 -999 -999 -999 -999
2008-08-27 05:24 51°17.796 2°41.59 -999 -999 -999 -999 -999
2008-08-27 05:25 51°17.918 2°41.336 -999 -999 -999 -999 -999
2008-08-27 05:26 51°18.04 2°41.088 -999 -999 -999 -999 -999
2008-08-27 05:27 51°18.162 2°40.839 -999 -999 -999 -999 -999
2008-08-27 05:28 51°18.289 2°40.593 -999 -999 -999 -999 -999
2008-08-27 05:29 51°18.415 2°40.343 -999 -999 -999 -999 -999
2008-08-27 05:30 51°18.543 2°40.095 -999 -999 -999 -999 -999
2008-08-27 05:31 51°18.674 2°39.854 -999 -999 -999 -999 -999
2008-08-27 05:32 51°18.803 2°39.613 -999 -999 -999 -999 -999
2008-08-27 05:33 51°18.931 2°39.37 -999 -999 -999 -999 -999
2008-08-27 05:34 51°19.055 2°39.125 -999 -999 -999 -999 -999
2008-08-27 05:35 51°19.178 2°38.879 -999 -999 -999 -999 -999
2008-08-27 05:36 51°19.304 2°38.635 -999 -999 -999 -999 -999
2008-08-27 05:37 51°19.427 2°38.393 -999 -999 -999 -999 -999
2008-08-27 05:38 51°19.545 2°38.142 -999 -999 -999 -999 -999
2008-08-27 05:39 51°19.679 2°37.916 -999 -999 -999 -999 -999
2008-08-27 05:40 51°19.79 2°37.692 -999 -999 -999 -999 -999
2008-08-27 05:41 51°19.878 2°37.511 -999 -999 -999 -999 -999
2008-08-27 05:42 51°19.955 2°37.365 -999 -999 -999 -999 -999
2008-08-27 05:43 51°20.008 2°37.227 -999 -999 -999 -999 -999
2008-08-27 05:44 51°20.055 2°37.128 -999 -999 -999 -999 -999
2008-08-27 05:45 51°20.079 2°37.069 -999 -999 -999 -999 -999
2008-08-27 05:46 51°20.096 2°37.034 -999 -999 -999 -999 -999
2008-08-27 05:47 51°20.11 2°37.006 -999 -999 -999 -999 -999
2008-08-27 05:48 51°20.114 2°36.993 -999 -999 -999 -999 -999
2008-08-27 05:49 51°20.114 2°36.989 -999 -999 -999 -999 -999
2008-08-27 05:50 51°20.112 2°36.992 -999 -999 -999 -999 -999
2008-08-27 05:51 51°20.126 2°36.987 -999 -999 -999 -999 -999
2008-08-27 05:52 51°20.154 2°36.916 -999 -999 -999 -999 -999
2008-08-27 05:53 51°20.138 2°36.84 -999 -999 -999 -999 -999
2008-08-27 05:54 51°20.12 2°36.832 -999 -999 -999 -999 -999
2008-08-27 05:55 51°20.114 2°36.84 -999 -999 -999 -999 -999
2008-08-27 05:56 51°20.113 2°36.843 -999 -999 -999 -999 -999
2008-08-27 05:57 51°20.11 2°36.846 -999 -999 -999 -999 -999
2008-08-27 05:58 51°20.106 2°36.854 -999 -999 -999 -999 -999
2008-08-27 05:59 51°20.098 2°36.866 -999 -999 -999 -999 -999
2008-08-27 06:00 51°20.089 2°36.875 -999 -999 -999 -999 -999
2008-08-27 06:01 51°20.087 2°36.878 -999 -999 -999 -999 -999
2008-08-27 06:02 51°20.082 2°36.887 -999 -999 -999 -999 -999
2008-08-27 06:03 51°20.085 2°36.885 -999 -999 -999 -999 -999
2008-08-27 06:04 51°20.104 2°36.84 -999 -999 -999 -999 -999
2008-08-27 06:05 51°20.103 2°36.852 -999 -999 -999 -999 -999
2008-08-27 06:06 51°20.097 2°36.893 -999 -999 -999 -999 -999
2008-08-27 06:07 51°20.084 2°36.917 -999 -999 -999 -999 -999
2008-08-27 06:08 51°20.071 2°36.933 -999 -999 -999 -999 -999
2008-08-27 06:09 51°20.058 2°36.946 -999 -999 -999 -999 -999
2008-08-27 06:10 51°20.005 2°36.921 -999 -999 -999 -999 -999
2008-08-27 06:11 51°20.011 2°36.803 -999 -999 -999 -999 -999
2008-08-27 06:12 51°20.045 2°36.784 -999 -999 -999 -999 -999
2008-08-27 06:13 51°20.064 2°36.796 -999 -999 -999 -999 -999
2008-08-27 06:14 51°20.07 2°36.807 -999 -999 -999 -999 -999
2008-08-27 06:15 51°20.072 2°36.814 -999 -999 -999 -999 -999
2008-08-27 06:16 51°20.073 2°36.821 -999 -999 -999 -999 -999
2008-08-27 06:17 51°20.075 2°36.829 -999 -999 -999 -999 -999
2008-08-27 06:18 51°20.076 2°36.838 -999 -999 -999 -999 -999
2008-08-27 06:19 51°20.076 2°36.847 -999 -999 -999 -999 -999
2008-08-27 06:20 51°20.077 2°36.858 -999 -999 -999 -999 -999
2008-08-27 06:21 51°20.08 2°36.868 -999 -999 -999 -999 -999
2008-08-27 06:22 51°20.084 2°36.876 -999 -999 -999 -999 -999
2008-08-27 06:23 51°20.085 2°36.883 -999 -999 -999 -999 -999
2008-08-27 06:24 51°20.086 2°36.893 -999 -999 -999 -999 -999
2008-08-27 06:25 51°20.088 2°36.904 -999 -999 -999 -999 -999
2008-08-27 06:26 51°20.092 2°36.918 -999 -999 -999 -999 -999
2008-08-27 06:27 51°20.098 2°36.93 -999 -999 -999 -999 -999
2008-08-27 06:28 51°20.101 2°36.94 -999 -999 -999 -999 -999
2008-08-27 06:29 51°20.137 2°36.989 -999 -999 -999 -999 -999
2008-08-27 06:30 51°20.081 2°37.082 -999 -999 -999 -999 -999
2008-08-27 06:31 51°20.028 2°36.987 -999 -999 -999 -999 -999
2008-08-27 06:32 51°20.067 2°36.926 -999 -999 -999 -999 -999
2008-08-27 06:33 51°20.095 2°36.891 -999 -999 -999 -999 -999
2008-08-27 06:34 51°20.118 2°36.87 -999 -999 -999 -999 -999
2008-08-27 06:35 51°20.137 2°36.857 -999 -999 -999 -999 -999
2008-08-27 06:36 51°20.148 2°36.856 -999 -999 -999 -999 -999
2008-08-27 06:37 51°20.153 2°36.86 -999 -999 -999 -999 -999
2008-08-27 06:38 51°20.156 2°36.873 -999 -999 -999 -999 -999
2008-08-27 06:39 51°20.157 2°36.89 -999 -999 -999 -999 -999
2008-08-27 06:40 51°20.181 2°36.908 -999 -999 -999 -999 -999
2008-08-27 06:41 51°20.199 2°36.989 -999 -999 -999 -999 -999
2008-08-27 06:42 51°20.188 2°37.045 -999 -999 -999 -999 -999
2008-08-27 06:43 51°20.177 2°37.073 -999 -999 -999 -999 -999
2008-08-27 06:44 51°20.168 2°37.097 -999 -999 -999 -999 -999
2008-08-27 06:45 51°20.16 2°37.119 -999 -999 -999 -999 -999
2008-08-27 06:46 51°20.155 2°37.143 -999 -999 -999 -999 -999
2008-08-27 06:47 51°20.149 2°37.168 -999 -999 -999 -999 -999
2008-08-27 06:48 51°20.145 2°37.191 -999 -999 -999 -999 -999
2008-08-27 06:49 51°20.142 2°37.215 -999 -999 -999 -999 -999
2008-08-27 06:50 51°20.14 2°37.24 -999 -999 -999 -999 -999
2008-08-27 06:51 51°20.126 2°37.269 -999 -999 -999 -999 -999
2008-08-27 06:52 51°20.084 2°37.263 -999 -999 -999 -999 -999
2008-08-27 06:53 51°20.062 2°37.224 -999 -999 -999 -999 -999
2008-08-27 06:54 51°20.058 2°37.208 -999 -999 -999 -999 -999
2008-08-27 06:55 51°20.062 2°37.203 -999 -999 -999 -999 -999
2008-08-27 06:56 51°20.069 2°37.211 -999 -999 -999 -999 -999
2008-08-27 06:57 51°20.077 2°37.225 -999 -999 -999 -999 -999
2008-08-27 06:58 51°20.09 2°37.236 -999 -999 -999 -999 -999
2008-08-27 06:59 51°20.105 2°37.233 -999 -999 -999 -999 -999
2008-08-27 07:00 51°20.116 2°37.22 -999 -999 -999 -999 -999
2008-08-27 07:01 51°20.119 2°37.21 -999 -999 -999 -999 -999
2008-08-27 07:02 51°20.122 2°37.215 -999 -999 -999 -999 -999
2008-08-27 07:03 51°20.126 2°37.233 -999 -999 -999 -999 -999
2008-08-27 07:04 51°20.131 2°37.255 -999 -999 -999 -999 -999
2008-08-27 07:05 51°20.142 2°37.271 -999 -999 -999 -999 -999
2008-08-27 07:06 51°20.156 2°37.272 -999 -999 -999 -999 -999
2008-08-27 07:07 51°20.166 2°37.26 -999 -999 -999 -999 -999
2008-08-27 07:08 51°20.167 2°37.247 -999 -999 -999 -999 -999
2008-08-27 07:09 51°20.156 2°37.228 -999 -999 -999 -999 -999
2008-08-27 07:10 51°20.141 2°37.205 -999 -999 -999 -999 -999
2008-08-27 07:11 51°20.13 2°37.191 -999 -999 -999 -999 -999
2008-08-27 07:12 51°20.122 2°37.196 -999 -999 -999 -999 -999
2008-08-27 07:13 51°20.117 2°37.218 -999 -999 -999 -999 -999
2008-08-27 07:14 51°20.113 2°37.252 -999 -999 -999 -999 -999
2008-08-27 07:15 51°20.114 2°37.286 -999 -999 -999 -999 -999
2008-08-27 07:16 51°20.114 2°37.32 -999 -999 -999 -999 -999
2008-08-27 07:17 51°20.115 2°37.353 -999 -999 -999 -999 -999
2008-08-27 07:18 51°20.116 2°37.385 -999 -999 -999 -999 -999
2008-08-27 07:19 51°20.103 2°37.422 -999 -999 -999 -999 -999
2008-08-27 07:20 51°20.077 2°37.447 -999 -999 -999 -999 -999
2008-08-27 07:21 51°20.045 2°37.447 -999 -999 -999 -999 -999
2008-08-27 07:22 51°20 2°37.425 -999 -999 -999 -999 -999
2008-08-27 07:23 51°19.959 2°37.407 -999 -999 -999 -999 -999
2008-08-27 07:24 51°19.925 2°37.384 -999 -999 -999 -999 -999
2008-08-27 07:25 51°19.913 2°37.289 -999 -999 -999 -999 -999
2008-08-27 07:26 51°19.939 2°37.221 -999 -999 -999 -999 -999
2008-08-27 07:27 51°19.971 2°37.187 -999 -999 -999 -999 -999
2008-08-27 07:28 51°19.992 2°37.184 -999 -999 -999 -999 -999
2008-08-27 07:29 51°20.005 2°37.2 -999 -999 -999 -999 -999
2008-08-27 07:30 51°20.016 2°37.231 -999 -999 -999 -999 -999
2008-08-27 07:31 51°20.025 2°37.267 -999 -999 -999 -999 -999
2008-08-27 07:32 51°20.031 2°37.305 -999 -999 -999 -999 -999
2008-08-27 07:33 51°20.037 2°37.342 -999 -999 -999 -999 -999
2008-08-27 07:34 51°20.07 2°37.33 -999 -999 -999 -999 -999
2008-08-27 07:35 51°20.068 2°37.288 -999 -999 -999 -999 -999
2008-08-27 07:36 51°20.043 2°37.298 -999 -999 -999 -999 -999
2008-08-27 07:37 51°20.023 2°37.341 -999 -999 -999 -999 -999
2008-08-27 07:38 51°20.012 2°37.384 -999 -999 -999 -999 -999
2008-08-27 07:39 51°20.004 2°37.424 -999 -999 -999 -999 -999
2008-08-27 07:40 51°19.975 2°37.442 -999 -999 -999 -999 -999
2008-08-27 07:41 51°19.964 2°37.391 -999 -999 -999 -999 -999
2008-08-27 07:42 51°19.985 2°37.359 -999 -999 -999 -999 -999
2008-08-27 07:43 51°20.005 2°37.349 -999 -999 -999 -999 -999
2008-08-27 07:44 51°20.02 2°37.352 -999 -999 -999 -999 -999
2008-08-27 07:45 51°20.035 2°37.364 -999 -999 -999 -999 -999
2008-08-27 07:46 51°20.049 2°37.38 -999 -999 -999 -999 -999
2008-08-27 07:47 51°20.065 2°37.403 -999 -999 -999 -999 -999
2008-08-27 07:48 51°20.081 2°37.431 -999 -999 -999 -999 -999
2008-08-27 07:49 51°20.107 2°37.44 -999 -999 -999 -999 -999
2008-08-27 07:50 51°20.139 2°37.427 -999 -999 -999 -999 -999
2008-08-27 07:51 51°20.184 2°37.416 -999 -999 -999 -999 -999
2008-08-27 07:52 51°20.239 2°37.45 -999 -999 -999 -999 -999
2008-08-27 07:53 51°20.287 2°37.496 -999 -999 -999 -999 -999
2008-08-27 07:54 51°20.321 2°37.533 -999 -999 -999 -999 -999
2008-08-27 07:55 51°20.346 2°37.569 -999 -999 -999 -999 -999
2008-08-27 07:56 51°20.363 2°37.601 -999 -999 -999 -999 -999
2008-08-27 07:57 51°20.377 2°37.638 -999 -999 -999 -999 -999
2008-08-27 07:58 51°20.4 2°37.666 -999 -999 -999 -999 -999
2008-08-27 07:59 51°20.421 2°37.623 -999 -999 -999 -999 -999
2008-08-27 08:00 51°20.382 2°37.547 -999 -999 -999 -999 -999
2008-08-27 08:01 51°20.311 2°37.413 -999 -999 -999 -999 -999
2008-08-27 08:02 51°20.263 2°37.312 -999 -999 -999 -999 -999
2008-08-27 08:03 51°20.24 2°37.258 -999 -999 -999 -999 -999
2008-08-27 08:04 51°20.221 2°37.228 -999 -999 -999 -999 -999
2008-08-27 08:05 51°20.206 2°37.204 -999 -999 -999 -999 -999
2008-08-27 08:06 51°20.226 2°37.163 -999 -999 -999 -999 -999
2008-08-27 08:07 51°20.256 2°37.178 -999 -999 -999 -999 -999
2008-08-27 08:08 51°20.28 2°37.205 -999 -999 -999 -999 -999
2008-08-27 08:09 51°20.299 2°37.236 -999 -999 -999 -999 -999
2008-08-27 08:10 51°20.316 2°37.269 -999 -999 -999 -999 -999
2008-08-27 08:11 51°20.34 2°37.285 -999 -999 -999 -999 -999
2008-08-27 08:12 51°20.394 2°37.156 -999 -999 -999 -999 -999
2008-08-27 08:13 51°20.479 2°36.908 -999 -999 -999 -999 -999
2008-08-27 08:14 51°20.565 2°36.655 -999 -999 -999 -999 -999
2008-08-27 08:15 51°20.653 2°36.399 -999 -999 -999 -999 -999
2008-08-27 08:16 51°20.722 2°36.128 -999 -999 -999 -999 -999
2008-08-27 08:17 51°20.777 2°35.859 -999 -999 -999 -999 -999
2008-08-27 08:18 51°20.84 2°35.581 -999 -999 -999 -999 -999
2008-08-27 08:19 51°20.9 2°35.311 -999 -999 -999 -999 -999
2008-08-27 08:20 51°20.956 2°35.032 -999 -999 -999 -999 -999
2008-08-27 08:21 51°21.007 2°34.752 -999 -999 -999 -999 -999
2008-08-27 08:22 51°21.055 2°34.473 -999 -999 -999 -999 -999
2008-08-27 08:23 51°21.105 2°34.195 -999 -999 -999 -999 -999
2008-08-27 08:24 51°21.151 2°33.915 -999 -999 -999 -999 -999
2008-08-27 08:25 51°21.199 2°33.629 -999 -999 -999 -999 -999
2008-08-27 08:26 51°21.27 2°33.369 -999 -999 -999 -999 -999
2008-08-27 08:27 51°21.437 2°33.21 -999 -999 -999 -999 -999
2008-08-27 08:28 51°21.629 2°33.132 -999 -999 -999 -999 -999
2008-08-27 08:29 51°21.835 2°33.095 -999 -999 -999 -999 -999
2008-08-27 08:30 51°22.035 2°33.06 -999 -999 -999 -999 -999
2008-08-27 08:31 51°22.24 2°33.015 -999 -999 -999 -999 -999
2008-08-27 08:32 51°22.406 2°32.869 -999 -999 -999 -999 -999
2008-08-27 08:33 51°22.533 2°32.654 -999 -999 -999 -999 -999
2008-08-27 08:34 51°22.665 2°32.433 -999 -999 -999 -999 -999
2008-08-27 08:35 51°22.794 2°32.218 -999 -999 -999 -999 -999
2008-08-27 08:36 51°22.927 2°31.995 -999 -999 -999 -999 -999
2008-08-27 08:37 51°23.057 2°31.783 -999 -999 -999 -999 -999
2008-08-27 08:38 51°23.195 2°31.573 -999 -999 -999 -999 -999
2008-08-27 08:39 51°23.334 2°31.36 -999 -999 -999 -999 -999
2008-08-27 08:40 51°23.47 2°31.152 -999 -999 -999 -999 -999
2008-08-27 08:41 51°23.603 2°30.923 -999 -999 -999 -999 -999
2008-08-27 08:42 51°23.71 2°30.681 -999 -999 -999 -999 -999
2008-08-27 08:43 51°23.82 2°30.427 -999 -999 -999 -999 -999
2008-08-27 08:44 51°23.928 2°30.182 -999 -999 -999 -999 -999
2008-08-27 08:45 51°24.039 2°29.93 -999 -999 -999 -999 -999
2008-08-27 08:46 51°24.149 2°29.687 -999 -999 -999 -999 -999
2008-08-27 08:47 51°24.265 2°29.437 -999 -999 -999 -999 -999
2008-08-27 08:48 51°24.378 2°29.236 -999 -999 -999 -999 -999
2008-08-27 08:49 51°24.464 2°29.11 -999 -999 -999 -999 -999
2008-08-27 08:50 51°24.531 2°29.001 -999 -999 -999 -999 -999
2008-08-27 08:51 51°24.579 2°28.893 -999 -999 -999 -999 -999
2008-08-27 08:52 51°24.624 2°28.808 -999 -999 -999 -999 -999
2008-08-27 08:53 51°24.655 2°28.779 -999 -999 -999 -999 -999
2008-08-27 08:54 51°24.678 2°28.755 -999 -999 -999 -999 -999
2008-08-27 08:55 51°24.698 2°28.735 -999 -999 -999 -999 -999
2008-08-27 08:56 51°24.722 2°28.725 -999 -999 -999 -999 -999
2008-08-27 08:57 51°24.751 2°28.689 -999 -999 -999 -999 -999
2008-08-27 08:58 51°24.773 2°28.705 -999 -999 -999 -999 -999
2008-08-27 08:59 51°24.79 2°28.745 -999 -999 -999 -999 -999
2008-08-27 09:00 51°24.808 2°28.785 -999 -999 -999 -999 -999
2008-08-27 09:01 51°24.827 2°28.827 -999 -999 -999 -999 -999
2008-08-27 09:02 51°24.86 2°28.834 -999 -999 -999 -999 -999
2008-08-27 09:03 51°24.874 2°28.787 -999 -999 -999 -999 -999
2008-08-27 09:04 51°24.839 2°28.712 -999 -999 -999 -999 -999
2008-08-27 09:05 51°24.799 2°28.614 -999 -999 -999 -999 -999
2008-08-27 09:06 51°24.758 2°28.6 -999 -999 -999 -999 -999
2008-08-27 09:07 51°24.74 2°28.639 -999 -999 -999 -999 -999
2008-08-27 09:08 51°24.75 2°28.681 -999 -999 -999 -999 -999
2008-08-27 09:09 51°24.77 2°28.718 -999 -999 -999 -999 -999
2008-08-27 09:10 51°24.792 2°28.753 -999 -999 -999 -999 -999
2008-08-27 09:11 51°24.81 2°28.79 -999 -999 -999 -999 -999
2008-08-27 09:12 51°24.821 2°28.84 -999 -999 -999 -999 -999
2008-08-27 09:13 51°24.797 2°28.891 -999 -999 -999 -999 -999
2008-08-27 09:14 51°24.769 2°28.874 -999 -999 -999 -999 -999
2008-08-27 09:15 51°24.733 2°28.805 -999 -999 -999 -999 -999
2008-08-27 09:16 51°24.718 2°28.728 -999 -999 -999 -999 -999
2008-08-27 09:17 51°24.74 2°28.708 -999 -999 -999 -999 -999
2008-08-27 09:18 51°24.766 2°28.718 -999 -999 -999 -999 -999
2008-08-27 09:19 51°24.79 2°28.744 -999 -999 -999 -999 -999
2008-08-27 09:20 51°24.812 2°28.779 -999 -999 -999 -999 -999
2008-08-27 09:21 51°24.832 2°28.82 -999 -999 -999 -999 -999
2008-08-27 09:22 51°24.86 2°28.843 -999 -999 -999 -999 -999
2008-08-27 09:23 51°24.881 2°28.808 -999 -999 -999 -999 -999
2008-08-27 09:24 51°24.859 2°28.729 -999 -999 -999 -999 -999
2008-08-27 09:25 51°24.813 2°28.644 -999 -999 -999 -999 -999
2008-08-27 09:26 51°24.778 2°28.632 -999 -999 -999 -999 -999
2008-08-27 09:27 51°24.765 2°28.672 -999 -999 -999 -999 -999
2008-08-27 09:28 51°24.771 2°28.717 -999 -999 -999 -999 -999
2008-08-27 09:29 51°24.79 2°28.759 -999 -999 -999 -999 -999
2008-08-27 09:30 51°24.808 2°28.799 -999 -999 -999 -999 -999
2008-08-27 09:31 51°24.814 2°28.856 -999 -999 -999 -999 -999
2008-08-27 09:32 51°24.78 2°28.892 -999 -999 -999 -999 -999
2008-08-27 09:33 51°24.757 2°28.846 -999 -999 -999 -999 -999
2008-08-27 09:34 51°24.725 2°28.776 -999 -999 -999 -999 -999
2008-08-27 09:35 51°24.714 2°28.73 -999 -999 -999 -999 -999
2008-08-27 09:36 51°24.728 2°28.711 -999 -999 -999 -999 -999
2008-08-27 09:37 51°24.749 2°28.715 -999 -999 -999 -999 -999
2008-08-27 09:38 51°24.771 2°28.727 -999 -999 -999 -999 -999
2008-08-27 09:39 51°24.794 2°28.752 -999 -999 -999 -999 -999
2008-08-27 09:40 51°24.816 2°28.789 -999 -999 -999 -999 -999
2008-08-27 09:41 51°24.844 2°28.814 -999 -999 -999 -999 -999
2008-08-27 09:42 51°24.867 2°28.786 -999 -999 -999 -999 -999
2008-08-27 09:43 51°24.842 2°28.773 -999 -999 -999 -999 -999
2008-08-27 09:44 51°24.813 2°28.752 -999 -999 -999 -999 -999
2008-08-27 09:45 51°24.799 2°28.708 -999 -999 -999 -999 -999
2008-08-27 09:46 51°24.773 2°28.671 -999 -999 -999 -999 -999
2008-08-27 09:47 51°24.763 2°28.685 -999 -999 -999 -999 -999
2008-08-27 09:48 51°24.767 2°28.724 -999 -999 -999 -999 -999
2008-08-27 09:49 51°24.782 2°28.772 -999 -999 -999 -999 -999
2008-08-27 09:50 51°24.797 2°28.818 -999 -999 -999 -999 -999
2008-08-27 09:51 51°24.797 2°28.874 -999 -999 -999 -999 -999
2008-08-27 09:52 51°24.771 2°28.897 -999 -999 -999 -999 -999
2008-08-27 09:53 51°24.754 2°28.858 -999 -999 -999 -999 -999
2008-08-27 09:54 51°24.732 2°28.794 -999 -999 -999 -999 -999
2008-08-27 09:55 51°24.709 2°28.724 -999 -999 -999 -999 -999
2008-08-27 09:56 51°24.725 2°28.686 -999 -999 -999 -999 -999
2008-08-27 09:57 51°24.751 2°28.685 -999 -999 -999 -999 -999
2008-08-27 09:58 51°24.776 2°28.714 -999 -999 -999 -999 -999
2008-08-27 09:59 51°24.796 2°28.758 -999 -999 -999 -999 -999
2008-08-27 10:00 51°24.816 2°28.803 -999 -999 -999 -999 -999
2008-08-27 10:01 51°24.848 2°28.836 -999 -999 -999 -999 -999
2008-08-27 10:02 51°24.884 2°28.798 -999 -999 -999 -999 -999
2008-08-27 10:03 51°24.863 2°28.737 -999 -999 -999 -999 -999
2008-08-27 10:04 51°24.806 2°28.642 -999 -999 -999 -999 -999
2008-08-27 10:05 51°24.762 2°28.61 -999 -999 -999 -999 -999
2008-08-27 10:06 51°24.751 2°28.646 -999 -999 -999 -999 -999
2008-08-27 10:07 51°24.763 2°28.694 -999 -999 -999 -999 -999
2008-08-27 10:08 51°24.786 2°28.732 -999 -999 -999 -999 -999
2008-08-27 10:09 51°24.806 2°28.772 -999 -999 -999 -999 -999
2008-08-27 10:10 51°24.824 2°28.818 -999 -999 -999 -999 -999
2008-08-27 10:11 51°24.808 2°28.877 -999 -999 -999 -999 -999
2008-08-27 10:12 51°24.775 2°28.866 -999 -999 -999 -999 -999
2008-08-27 10:13 51°24.734 2°28.775 -999 -999 -999 -999 -999
2008-08-27 10:14 51°24.704 2°28.719 -999 -999 -999 -999 -999
2008-08-27 10:15 51°24.719 2°28.695 -999 -999 -999 -999 -999
2008-08-27 10:16 51°24.75 2°28.693 -999 -999 -999 -999 -999
2008-08-27 10:17 51°24.774 2°28.714 -999 -999 -999 -999 -999
2008-08-27 10:18 51°24.796 2°28.757 -999 -999 -999 -999 -999
2008-08-27 10:19 51°24.816 2°28.803 -999 -999 -999 -999 -999
2008-08-27 10:20 51°24.846 2°28.84 -999 -999 -999 -999 -999
2008-08-27 10:21 51°24.886 2°28.811 -999 -999 -999 -999 -999
2008-08-27 10:22 51°24.873 2°28.752 -999 -999 -999 -999 -999
2008-08-27 10:23 51°24.812 2°28.662 -999 -999 -999 -999 -999
2008-08-27 10:24 51°24.78 2°28.646 -999 -999 -999 -999 -999
2008-08-27 10:25 51°24.778 2°28.688 -999 -999 -999 -999 -999
2008-08-27 10:26 51°24.785 2°28.734 -999 -999 -999 -999 -999
2008-08-27 10:27 51°24.798 2°28.782 -999 -999 -999 -999 -999
2008-08-27 10:28 51°24.814 2°28.83 -999 -999 -999 -999 -999
2008-08-27 10:29 51°24.829 2°28.878 -999 -999 -999 -999 -999
2008-08-27 10:30 51°24.813 2°28.926 -999 -999 -999 -999 -999
2008-08-27 10:31 51°24.787 2°28.918 -999 -999 -999 -999 -999
2008-08-27 10:32 51°24.75 2°28.838 -999 -999 -999 -999 -999
2008-08-27 10:33 51°24.713 2°28.734 -999 -999 -999 -999 -999
2008-08-27 10:34 51°24.728 2°28.676 -999 -999 -999 -999 -999
2008-08-27 10:35 51°24.757 2°28.668 -999 -999 -999 -999 -999
2008-08-27 10:36 51°24.776 2°28.706 -999 -999 -999 -999 -999
2008-08-27 10:37 51°24.789 2°28.754 -999 -999 -999 -999 -999
2008-08-27 10:38 51°24.806 2°28.798 -999 -999 -999 -999 -999
2008-08-27 10:39 51°24.825 2°28.841 -999 -999 -999 -999 -999
2008-08-27 10:40 51°24.864 2°28.847 -999 -999 -999 -999 -999
2008-08-27 10:41 51°24.876 2°28.803 -999 -999 -999 -999 -999
2008-08-27 10:42 51°24.856 2°28.749 -999 -999 -999 -999 -999
2008-08-27 10:43 51°24.825 2°28.655 -999 -999 -999 -999 -999
2008-08-27 10:44 51°24.794 2°28.615 -999 -999 -999 -999 -999
2008-08-27 10:45 51°24.786 2°28.646 -999 -999 -999 -999 -999
2008-08-27 10:46 51°24.781 2°28.686 -999 -999 -999 -999 -999
2008-08-27 10:47 51°24.782 2°28.728 -999 -999 -999 -999 -999
2008-08-27 10:48 51°24.792 2°28.773 -999 -999 -999 -999 -999
2008-08-27 10:49 51°24.807 2°28.819 -999 -999 -999 -999 -999
2008-08-27 10:50 51°24.806 2°28.869 -999 -999 -999 -999 -999
2008-08-27 10:51 51°24.786 2°28.891 -999 -999 -999 -999 -999
2008-08-27 10:52 51°24.771 2°28.852 -999 -999 -999 -999 -999
2008-08-27 10:53 51°24.723 2°28.768 -999 -999 -999 -999 -999
2008-08-27 10:54 51°24.716 2°28.687 -999 -999 -999 -999 -999
2008-08-27 10:55 51°24.739 2°28.671 -999 -999 -999 -999 -999
2008-08-27 10:56 51°24.761 2°28.699 -999 -999 -999 -999 -999
2008-08-27 10:57 51°24.783 2°28.736 -999 -999 -999 -999 -999
2008-08-27 10:58 51°24.804 2°28.777 -999 -999 -999 -999 -999
2008-08-27 10:59 51°24.824 2°28.818 -999 -999 -999 -999 -999
2008-08-27 11:00 51°24.843 2°28.86 -999 -999 -999 -999 -999
2008-08-27 11:01 51°24.864 2°28.899 -999 -999 -999 -999 -999
2008-08-27 11:02 51°24.922 2°28.954 -999 -999 -999 -999 -999
2008-08-27 11:03 51°24.918 2°29.096 -999 -999 -999 -999 -999
2008-08-27 11:04 51°24.824 2°29.24 -999 -999 -999 -999 -999
2008-08-27 11:05 51°24.696 2°29.427 -999 -999 -999 -999 -999
2008-08-27 11:06 51°24.55 2°29.642 -999 -999 -999 -999 -999
2008-08-27 11:07 51°24.401 2°29.853 -999 -999 -999 -999 -999
2008-08-27 11:08 51°24.254 2°30.067 -999 -999 -999 -999 -999
2008-08-27 11:09 51°24.106 2°30.279 -999 -999 -999 -999 -999
2008-08-27 11:10 51°23.957 2°30.49 -999 -999 -999 -999 -999
2008-08-27 11:11 51°23.808 2°30.699 -999 -999 -999 -999 -999
2008-08-27 11:12 51°23.66 2°30.911 -999 -999 -999 -999 -999
2008-08-27 11:13 51°23.511 2°31.12 -999 -999 -999 -999 -999
2008-08-27 11:14 51°23.36 2°31.333 -999 -999 -999 -999 -999
2008-08-27 11:15 51°23.215 2°31.561 -999 -999 -999 -999 -999
2008-08-27 11:16 51°23.071 2°31.794 -999 -999 -999 -999 -999
2008-08-27 11:17 51°22.926 2°32.024 -999 -999 -999 -999 -999
2008-08-27 11:18 51°22.78 2°32.251 -999 -999 -999 -999 -999
2008-08-27 11:19 51°22.632 2°32.474 -999 -999 -999 -999 -999
2008-08-27 11:20 51°22.484 2°32.699 -999 -999 -999 -999 -999
2008-08-27 11:21 51°22.335 2°32.918 -999 -999 -999 -999 -999
2008-08-27 11:22 51°22.188 2°33.136 -999 -999 -999 -999 -999
2008-08-27 11:23 51°22.038 2°33.352 -999 -999 -999 -999 -999
2008-08-27 11:24 51°21.892 2°33.57 -999 -999 -999 -999 -999
2008-08-27 11:25 51°21.747 2°33.789 -999 -999 -999 -999 -999
2008-08-27 11:26 51°21.602 2°34.009 -999 -999 -999 -999 -999
2008-08-27 11:27 51°21.455 2°34.226 -999 -999 -999 -999 -999
2008-08-27 11:28 51°21.309 2°34.448 -999 -999 -999 -999 -999
2008-08-27 11:29 51°21.165 2°34.671 -999 -999 -999 -999 -999
2008-08-27 11:30 51°21.021 2°34.893 -999 -999 -999 -999 -999
2008-08-27 11:31 51°20.895 2°35.148 -999 -999 -999 -999 -999
2008-08-27 11:32 51°20.771 2°35.406 -999 -999 -999 -999 -999
2008-08-27 11:33 51°20.637 2°35.646 -999 -999 -999 -999 -999
2008-08-27 11:34 51°20.498 2°35.884 -999 -999 -999 -999 -999
2008-08-27 11:35 51°20.36 2°36.123 -999 -999 -999 -999 -999
2008-08-27 11:36 51°20.219 2°36.358 -999 -999 -999 -999 -999
2008-08-27 11:37 51°20.098 2°36.568 -999 -999 -999 -999 -999
2008-08-27 11:38 51°20.041 2°36.668 -999 -999 -999 -999 -999
2008-08-27 11:39 51°20.026 2°36.708 -999 -999 -999 -999 -999
2008-08-27 11:40 51°20.036 2°36.74 -999 -999 -999 -999 -999
2008-08-27 11:41 51°20.048 2°36.773 -999 -999 -999 -999 -999
2008-08-27 11:42 51°20.061 2°36.805 -999 -999 -999 -999 -999
2008-08-27 11:43 51°20.073 2°36.839 -999 -999 -999 -999 -999
2008-08-27 11:44 51°20.08 2°36.875 -999 -999 -999 -999 -999
2008-08-27 11:45 51°20.092 2°36.905 -999 -999 -999 -999 -999
2008-08-27 11:46 51°20.108 2°36.934 -999 -999 -999 -999 -999
2008-08-27 11:47 51°20.123 2°36.965 -999 -999 -999 -999 -999
2008-08-27 11:48 51°20.135 2°36.998 -999 -999 -999 -999 -999
2008-08-27 11:49 51°20.147 2°37.029 -999 -999 -999 -999 -999
2008-08-27 11:50 51°20.159 2°37.06 -999 -999 -999 -999 -999
2008-08-27 11:51 51°20.171 2°37.091 -999 -999 -999 -999 -999
2008-08-27 11:52 51°20.182 2°37.122 -999 -999 -999 -999 -999
2008-08-27 11:53 51°20.195 2°37.154 -999 -999 -999 -999 -999
2008-08-27 11:54 51°20.207 2°37.186 -999 -999 -999 -999 -999
2008-08-27 11:55 51°20.22 2°37.217 -999 -999 -999 -999 -999
2008-08-27 11:56 51°20.234 2°37.247 -999 -999 -999 -999 -999
2008-08-27 11:57 51°20.247 2°37.275 -999 -999 -999 -999 -999
2008-08-27 11:58 51°20.261 2°37.304 -999 -999 -999 -999 -999
2008-08-27 11:59 51°20.274 2°37.334 -999 -999 -999 -999 -999
2008-08-27 12:00 51°20.286 2°37.364 -999 -999 -999 -999 -999
2008-08-27 12:01 51°20.299 2°37.392 -999 -999 -999 -999 -999
2008-08-27 12:02 51°20.312 2°37.421 -999 -999 -999 -999 -999
2008-08-27 12:03 51°20.319 2°37.453 -999 -999 -999 -999 -999
2008-08-27 12:04 51°20.291 2°37.462 -999 -999 -999 -999 -999
2008-08-27 12:05 51°20.271 2°37.405 -999 -999 -999 -999 -999
2008-08-27 12:06 51°20.247 2°37.315 -999 -999 -999 -999 -999
2008-08-27 12:07 51°20.213 2°37.219 -999 -999 -999 -999 -999
2008-08-27 12:08 51°20.176 2°37.122 -999 -999 -999 -999 -999
2008-08-27 12:09 51°20.131 2°37.049 -999 -999 -999 -999 -999
2008-08-27 12:10 51°20.102 2°36.989 -999 -999 -999 -999 -999
2008-08-27 12:11 51°20.091 2°36.874 -999 -999 -999 -999 -999
2008-08-27 12:12 51°20.126 2°36.824 -999 -999 -999 -999 -999
2008-08-27 12:13 51°20.165 2°36.815 -999 -999 -999 -999 -999
2008-08-27 12:14 51°20.194 2°36.82 -999 -999 -999 -999 -999
2008-08-27 12:15 51°20.219 2°36.832 -999 -999 -999 -999 -999
2008-08-27 12:16 51°20.239 2°36.848 -999 -999 -999 -999 -999
2008-08-27 12:17 51°20.258 2°36.868 -999 -999 -999 -999 -999
2008-08-27 12:18 51°20.276 2°36.891 -999 -999 -999 -999 -999
2008-08-27 12:19 51°20.292 2°36.915 -999 -999 -999 -999 -999
2008-08-27 12:20 51°20.309 2°36.942 -999 -999 -999 -999 -999
2008-08-27 12:21 51°20.337 2°36.953 -999 -999 -999 -999 -999
2008-08-27 12:22 51°20.364 2°36.907 -999 -999 -999 -999 -999
2008-08-27 12:23 51°20.338 2°36.848 -999 -999 -999 -999 -999
2008-08-27 12:24 51°20.286 2°36.829 -999 -999 -999 -999 -999
2008-08-27 12:25 51°20.242 2°36.834 -999 -999 -999 -999 -999
2008-08-27 12:26 51°20.221 2°36.849 -999 -999 -999 -999 -999
2008-08-27 12:27 51°20.214 2°36.87 -999 -999 -999 -999 -999
2008-08-27 12:28 51°20.215 2°36.893 -999 -999 -999 -999 -999
2008-08-27 12:29 51°20.221 2°36.92 -999 -999 -999 -999 -999
2008-08-27 12:30 51°20.232 2°36.948 -999 -999 -999 -999 -999
2008-08-27 12:31 51°20.243 2°36.975 -999 -999 -999 -999 -999
2008-08-27 12:32 51°20.254 2°37 -999 -999 -999 -999 -999
2008-08-27 12:33 51°20.265 2°37.025 -999 -999 -999 -999 -999
2008-08-27 12:34 51°20.277 2°37.05 -999 -999 -999 -999 -999
2008-08-27 12:35 51°20.289 2°37.073 -999 -999 -999 -999 -999
2008-08-27 12:36 51°20.3 2°37.096 -999 -999 -999 -999 -999
2008-08-27 12:37 51°20.307 2°37.123 -999 -999 -999 -999 -999
2008-08-27 12:38 51°20.281 2°37.142 -999 -999 -999 -999 -999
2008-08-27 12:39 51°20.266 2°37.149 -999 -999 -999 -999 -999
2008-08-27 12:40 51°20.257 2°37.16 -999 -999 -999 -999 -999
2008-08-27 12:41 51°20.237 2°37.138 -999 -999 -999 -999 -999
2008-08-27 12:42 51°20.207 2°37.096 -999 -999 -999 -999 -999
2008-08-27 12:43 51°20.185 2°37.097 -999 -999 -999 -999 -999
2008-08-27 12:44 51°20.178 2°37.116 -999 -999 -999 -999 -999
2008-08-27 12:45 51°20.178 2°37.138 -999 -999 -999 -999 -999
2008-08-27 12:46 51°20.182 2°37.163 -999 -999 -999 -999 -999
2008-08-27 12:47 51°20.19 2°37.188 -999 -999 -999 -999 -999
2008-08-27 12:48 51°20.197 2°37.212 -999 -999 -999 -999 -999
2008-08-27 12:49 51°20.206 2°37.238 -999 -999 -999 -999 -999
2008-08-27 12:50 51°20.213 2°37.262 -999 -999 -999 -999 -999
2008-08-27 12:51 51°20.222 2°37.287 -999 -999 -999 -999 -999
2008-08-27 12:52 51°20.231 2°37.31 -999 -999 -999 -999 -999
2008-08-27 12:53 51°20.237 2°37.332 -999 -999 -999 -999 -999
2008-08-27 12:54 51°20.245 2°37.356 -999 -999 -999 -999 -999
2008-08-27 12:55 51°20.235 2°37.38 -999 -999 -999 -999 -999
2008-08-27 12:56 51°20.206 2°37.374 -999 -999 -999 -999 -999
2008-08-27 12:57 51°20.19 2°37.324 -999 -999 -999 -999 -999
2008-08-27 12:58 51°20.182 2°37.246 -999 -999 -999 -999 -999
2008-08-27 12:59 51°20.175 2°37.174 -999 -999 -999 -999 -999
2008-08-27 13:00 51°20.174 2°37.133 -999 -999 -999 -999 -999
2008-08-27 13:01 51°20.18 2°37.117 -999 -999 -999 -999 -999
2008-08-27 13:02 51°20.191 2°37.119 -999 -999 -999 -999 -999
2008-08-27 13:03 51°20.204 2°37.137 -999 -999 -999 -999 -999
2008-08-27 13:04 51°20.212 2°37.16 -999 -999 -999 -999 -999
2008-08-27 13:05 51°20.22 2°37.186 -999 -999 -999 -999 -999
2008-08-27 13:06 51°20.235 2°37.204 -999 -999 -999 -999 -999
2008-08-27 13:07 51°20.268 2°37.192 -999 -999 -999 -999 -999
2008-08-27 13:08 51°20.29 2°37.152 -999 -999 -999 -999 -999
2008-08-27 13:09 51°20.288 2°37.107 -999 -999 -999 -999 -999
2008-08-27 13:10 51°20.265 2°37.067 -999 -999 -999 -999 -999
2008-08-27 13:11 51°20.246 2°37.025 -999 -999 -999 -999 -999
2008-08-27 13:12 51°20.235 2°36.976 -999 -999 -999 -999 -999
2008-08-27 13:13 51°20.234 2°36.921 -999 -999 -999 -999 -999
2008-08-27 13:14 51°20.235 2°36.879 -999 -999 -999 -999 -999
2008-08-27 13:15 51°20.239 2°36.857 -999 -999 -999 -999 -999
2008-08-27 13:16 51°20.244 2°36.844 -999 -999 -999 -999 -999
2008-08-27 13:17 51°20.27 2°36.798 -999 -999 -999 -999 -999
2008-08-27 13:18 51°20.327 2°36.762 -999 -999 -999 -999 -999
2008-08-27 13:19 51°20.387 2°36.709 -999 -999 -999 -999 -999
2008-08-27 13:20 51°20.441 2°36.643 -999 -999 -999 -999 -999
2008-08-27 13:21 51°20.416 2°36.555 -999 -999 -999 -999 -999
2008-08-27 13:22 51°20.355 2°36.608 -999 -999 -999 -999 -999
2008-08-27 13:23 51°20.307 2°36.661 -999 -999 -999 -999 -999
2008-08-27 13:24 51°20.262 2°36.698 -999 -999 -999 -999 -999
2008-08-27 13:25 51°20.235 2°36.72 -999 -999 -999 -999 -999
2008-08-27 13:26 51°20.222 2°36.74 -999 -999 -999 -999 -999
2008-08-27 13:27 51°20.217 2°36.757 -999 -999 -999 -999 -999
2008-08-27 13:28 51°20.216 2°36.773 -999 -999 -999 -999 -999
2008-08-27 13:29 51°20.219 2°36.79 -999 -999 -999 -999 -999
2008-08-27 13:30 51°20.226 2°36.807 -999 -999 -999 -999 -999
2008-08-27 13:31 51°20.233 2°36.824 -999 -999 -999 -999 -999
2008-08-27 13:32 51°20.241 2°36.842 -999 -999 -999 -999 -999
2008-08-27 13:33 51°20.248 2°36.861 -999 -999 -999 -999 -999
2008-08-27 13:34 51°20.241 2°36.925 -999 -999 -999 -999 -999
2008-08-27 13:35 51°20.286 2°36.98 -999 -999 -999 -999 -999
2008-08-27 13:36 51°20.328 2°36.977 -999 -999 -999 -999 -999
2008-08-27 13:37 51°20.354 2°36.974 -999 -999 -999 -999 -999
2008-08-27 13:38 51°20.372 2°36.974 -999 -999 -999 -999 -999
2008-08-27 13:39 51°20.391 2°36.972 -999 -999 -999 -999 -999
2008-08-27 13:40 51°20.424 2°36.946 -999 -999 -999 -999 -999
2008-08-27 13:41 51°20.461 2°36.903 -999 -999 -999 -999 -999
2008-08-27 13:42 51°20.492 2°36.865 -999 -999 -999 -999 -999
2008-08-27 13:43 51°20.514 2°36.848 -999 -999 -999 -999 -999
2008-08-27 13:44 51°20.531 2°36.845 -999 -999 -999 -999 -999
2008-08-27 13:45 51°20.545 2°36.848 -999 -999 -999 -999 -999
2008-08-27 13:46 51°20.559 2°36.855 -999 -999 -999 -999 -999
2008-08-27 13:47 51°20.618 2°36.895 -999 -999 -999 -999 -999
2008-08-27 13:48 51°20.612 2°36.973 -999 -999 -999 -999 -999
2008-08-27 13:49 51°20.61 2°36.988 -999 -999 -999 -999 -999
2008-08-27 13:50 51°20.609 2°37.002 -999 -999 -999 -999 -999
2008-08-27 13:51 51°20.61 2°37.017 -999 -999 -999 -999 -999
2008-08-27 13:52 51°20.615 2°37.029 -999 -999 -999 -999 -999
2008-08-27 13:53 51°20.62 2°37.04 -999 -999 -999 -999 -999
2008-08-27 13:54 51°20.625 2°37.052 -999 -999 -999 -999 -999
2008-08-27 13:55 51°20.629 2°37.065 -999 -999 -999 -999 -999
2008-08-27 13:56 51°20.598 2°37.121 -999 -999 -999 -999 -999
2008-08-27 13:57 51°20.556 2°37.302 -999 -999 -999 -999 -999
2008-08-27 13:58 51°20.454 2°37.496 -999 -999 -999 -999 -999
2008-08-27 13:59 51°20.319 2°37.713 -999 -999 -999 -999 -999
2008-08-27 14:00 51°20.182 2°37.938 -999 -999 -999 -999 -999
2008-08-27 14:01 51°20.044 2°38.161 -999 -999 -999 -999 -999
2008-08-27 14:02 51°19.908 2°38.388 -999 -999 -999 -999 -999
2008-08-27 14:03 51°19.775 2°38.617 -999 -999 -999 -999 -999
2008-08-27 14:04 51°19.642 2°38.847 -999 -999 -999 -999 -999
2008-08-27 14:05 51°19.509 2°39.081 -999 -999 -999 -999 -999
2008-08-27 14:06 51°19.375 2°39.313 -999 -999 -999 -999 -999
2008-08-27 14:07 51°19.243 2°39.547 -999 -999 -999 -999 -999
2008-08-27 14:08 51°19.11 2°39.78 -999 -999 -999 -999 -999
2008-08-27 14:09 51°18.979 2°40.014 -999 -999 -999 -999 -999
2008-08-27 14:10 51°18.847 2°40.247 -999 -999 -999 -999 -999
2008-08-27 14:11 51°18.711 2°40.479 -999 -999 -999 -999 -999
2008-08-27 14:12 51°18.574 2°40.703 -999 -999 -999 -999 -999
2008-08-27 14:13 51°18.444 2°40.936 -999 -999 -999 -999 -999
2008-08-27 14:14 51°18.323 2°41.183 -999 -999 -999 -999 -999
2008-08-27 14:15 51°18.205 2°41.434 -999 -999 -999 -999 -999
2008-08-27 14:16 51°18.085 2°41.685 -999 -999 -999 -999 -999
2008-08-27 14:17 51°17.964 2°41.933 -999 -999 -999 -999 -999
2008-08-27 14:18 51°17.843 2°42.182 -999 -999 -999 -999 -999
2008-08-27 14:19 51°17.72 2°42.431 -999 -999 -999 -999 -999
2008-08-27 14:20 51°17.599 2°42.68 -999 -999 -999 -999 -999
2008-08-27 14:21 51°17.478 2°42.925 -999 -999 -999 -999 -999
2008-08-27 14:22 51°17.363 2°43.164 -999 -999 -999 -999 -999
2008-08-27 14:23 51°17.243 2°43.407 -999 -999 -999 -999 -999
2008-08-27 14:24 51°17.124 2°43.649 -999 -999 -999 -999 -999
2008-08-27 14:25 51°17.002 2°43.889 -999 -999 -999 -999 -999
2008-08-27 14:26 51°16.881 2°44.135 -999 -999 -999 -999 -999
2008-08-27 14:27 51°16.76 2°44.383 -999 -999 -999 -999 -999
2008-08-27 14:28 51°16.638 2°44.629 -999 -999 -999 -999 -999
2008-08-27 14:29 51°16.529 2°44.886 -999 -999 -999 -999 -999
2008-08-27 14:30 51°16.418 2°45.141 -999 -999 -999 -999 -999
2008-08-27 14:31 51°16.308 2°45.398 -999 -999 -999 -999 -999
2008-08-27 14:32 51°16.196 2°45.651 -999 -999 -999 -999 -999
2008-08-27 14:33 51°16.087 2°45.908 -999 -999 -999 -999 -999
2008-08-27 14:34 51°16 2°46.185 -999 -999 -999 -999 -999
2008-08-27 14:35 51°15.924 2°46.467 -999 -999 -999 -999 -999
2008-08-27 14:36 51°15.852 2°46.752 -999 -999 -999 -999 -999
2008-08-27 14:37 51°15.795 2°47.048 -999 -999 -999 -999 -999
2008-08-27 14:38 51°15.753 2°47.349 -999 -999 -999 -999 -999
2008-08-27 14:39 51°15.712 2°47.652 -999 -999 -999 -999 -999
2008-08-27 14:40 51°15.672 2°47.951 -999 -999 -999 -999 -999
2008-08-27 14:41 51°15.628 2°48.247 -999 -999 -999 -999 -999
2008-08-27 14:42 51°15.586 2°48.552 -999 -999 -999 -999 -999
2008-08-27 14:43 51°15.548 2°48.845 -999 -999 -999 -999 -999
2008-08-27 14:44 51°15.504 2°49.15 -999 -999 -999 -999 -999
2008-08-27 14:45 51°15.46 2°49.447 -999 -999 -999 -999 -999
2008-08-27 14:46 51°15.413 2°49.749 -999 -999 -999 -999 -999
2008-08-27 14:47 51°15.369 2°50.05 -999 -999 -999 -999 -999
2008-08-27 14:48 51°15.323 2°50.349 -999 -999 -999 -999 -999
2008-08-27 14:49 51°15.276 2°50.647 -999 -999 -999 -999 -999
2008-08-27 14:50 51°15.233 2°50.946 -999 -999 -999 -999 -999
2008-08-27 14:51 51°15.187 2°51.243 -999 -999 -999 -999 -999
2008-08-27 14:52 51°15.141 2°51.541 -999 -999 -999 -999 -999
2008-08-27 14:53 51°15.094 2°51.838 -999 -999 -999 -999 -999
2008-08-27 14:54 51°15.046 2°52.135 -999 -999 -999 -999 -999
2008-08-27 14:55 51°15.002 2°52.432 -999 -999 -999 -999 -999
2008-08-27 14:56 51°14.956 2°52.732 -999 -999 -999 -999 -999
2008-08-27 14:57 51°14.91 2°53.003 -999 -999 -999 -999 -999
2008-08-27 14:58 51°14.868 2°53.249 -999 -999 -999 -999 -999
2008-08-27 14:59 51°14.826 2°53.483 -999 -999 -999 -999 -999
2008-08-27 15:00 51°14.78 2°53.714 -999 -999 -999 -999 -999
2008-08-27 15:01 51°14.721 2°53.98 -999 -999 -999 -999 -999
2008-08-27 15:02 51°14.65 2°54.266 -999 -999 -999 -999 -999
2008-08-27 15:03 51°14.564 2°54.541 -999 -999 -999 -999 -999
2008-08-27 15:04 51°14.468 2°54.816 -999 -999 -999 -999 -999
2008-08-27 15:05 51°14.358 2°55.072 -999 -999 -999 -999 -999